createdAt,value
2019-06-20T00:01:49.920Z,18.98
2019-06-20T00:04:53.650Z,18.80
2019-06-20T00:07:57.894Z,18.81
2019-06-20T00:11:01.587Z,18.78
2019-06-20T00:14:05.707Z,18.59
2019-06-20T00:17:09.411Z,18.75
2019-06-20T00:20:13.373Z,18.87
2019-06-20T00:23:17.045Z,18.84
2019-06-20T00:26:20.983Z,18.87
2019-06-20T00:29:24.744Z,18.69
2019-06-20T00:32:28.446Z,18.72
2019-06-20T00:35:32.152Z,18.68
2019-06-20T00:38:36.167Z,18.72
2019-06-20T00:41:40.263Z,18.70
2019-06-20T00:44:43.971Z,18.75
2019-06-20T00:47:47.952Z,18.74
2019-06-20T00:50:51.685Z,18.72
2019-06-20T00:53:55.665Z,18.73
2019-06-20T00:56:59.415Z,18.79
2019-06-20T01:00:03.162Z,18.83
2019-06-20T01:03:06.932Z,18.71
2019-06-20T01:06:10.965Z,18.70
2019-06-20T01:09:14.985Z,18.58
2019-06-20T01:12:18.694Z,18.46
2019-06-20T01:15:22.896Z,18.44
2019-06-20T01:18:26.602Z,18.40
2019-06-20T01:21:30.389Z,18.33
2019-06-20T01:24:34.077Z,18.31
2019-06-20T01:27:38.449Z,18.29
2019-06-20T01:30:42.595Z,18.33
2019-06-20T01:33:46.284Z,18.32
2019-06-20T01:36:49.991Z,18.38
2019-06-20T01:39:53.687Z,18.23
2019-06-20T01:42:57.400Z,18.21
2019-06-20T01:46:01.122Z,18.18
2019-06-20T01:49:04.814Z,18.28
2019-06-20T01:52:08.742Z,18.19
2019-06-20T01:55:12.922Z,18.20
2019-06-20T01:58:16.860Z,18.34
2019-06-20T02:01:20.628Z,18.22
2019-06-20T02:04:24.561Z,18.15
2019-06-20T02:07:28.470Z,18.24
2019-06-20T02:10:32.483Z,18.30
2019-06-20T02:13:36.440Z,18.23
2019-06-20T02:16:40.228Z,18.21
2019-06-20T02:19:44.080Z,18.20
2019-06-20T02:22:47.783Z,18.26
2019-06-20T02:25:52.065Z,18.16
2019-06-20T02:28:55.831Z,18.22
2019-06-20T02:31:59.549Z,18.37
2019-06-20T02:35:03.249Z,18.37
2019-06-20T02:38:07.103Z,18.28
2019-06-20T02:41:10.860Z,18.25
2019-06-20T02:44:29.362Z,18.18
2019-06-20T02:47:19.988Z,18.16
2019-06-20T02:50:23.944Z,18.27
2019-06-20T02:53:27.706Z,18.25
2019-06-20T02:56:31.480Z,18.25
2019-06-20T02:59:35.554Z,18.34
2019-06-20T03:02:39.532Z,18.21
2019-06-20T03:05:58.659Z,18.25
2019-06-20T03:09:02.373Z,18.14
2019-06-20T03:12:06.071Z,17.97
2019-06-20T03:15:09.866Z,18.14
2019-06-20T03:18:13.566Z,17.90
2019-06-20T03:21:17.329Z,18.13
2019-06-20T03:24:21.292Z,18.00
2019-06-20T03:27:24.991Z,18.14
2019-06-20T03:30:28.934Z,17.88
2019-06-20T03:33:32.687Z,18.17
2019-06-20T03:36:36.382Z,18.16
2019-06-20T03:39:40.080Z,18.20
2019-06-20T03:42:43.849Z,18.18
2019-06-20T03:45:47.986Z,18.33
2019-06-20T03:48:52.436Z,18.15
2019-06-20T03:51:56.211Z,18.25
2019-06-20T03:54:59.920Z,18.03
2019-06-20T03:58:04.264Z,18.20
2019-06-20T04:01:08.235Z,18.13
2019-06-20T04:04:12.369Z,18.19
2019-06-20T04:07:16.140Z,18.20
2019-06-20T04:10:19.918Z,18.00
2019-06-20T04:13:23.972Z,18.18
2019-06-20T04:16:27.748Z,17.89
2019-06-20T04:19:31.437Z,18.15
2019-06-20T04:22:35.881Z,18.04
2019-06-20T04:25:39.573Z,18.12
2019-06-20T04:28:43.262Z,18.14
2019-06-20T04:31:46.961Z,18.26
2019-06-20T04:34:50.769Z,18.30
2019-06-20T04:37:54.461Z,18.44
2019-06-20T04:40:58.154Z,18.44
2019-06-20T04:44:01.905Z,18.52
2019-06-20T04:47:10.098Z,18.21
2019-06-20T04:50:13.890Z,18.37
2019-06-20T04:53:17.719Z,18.37
2019-06-20T04:56:21.736Z,18.61
2019-06-20T04:59:25.906Z,18.68
2019-06-20T05:02:36.109Z,18.34
2019-06-20T05:05:39.839Z,18.60
2019-06-20T05:08:43.863Z,18.64
2019-06-20T05:11:47.620Z,18.80
2019-06-20T05:14:51.322Z,18.99
2019-06-20T05:17:55.037Z,18.66
2019-06-20T05:20:58.727Z,18.74
2019-06-20T05:24:02.428Z,18.73
2019-06-20T05:27:06.139Z,18.89
2019-06-20T05:30:11.241Z,18.77
2019-06-20T05:33:14.946Z,18.87
2019-06-20T05:36:18.921Z,18.99
2019-06-20T05:39:22.927Z,19.21
2019-06-20T05:42:26.643Z,19.22
2019-06-20T05:45:31.149Z,19.04
2019-06-20T05:48:35.165Z,19.23
2019-06-20T05:51:39.803Z,19.27
2019-06-20T05:54:44.222Z,18.99
2019-06-20T05:57:47.986Z,19.52
2019-06-20T06:00:51.683Z,19.25
2019-06-20T06:03:55.387Z,19.38
2019-06-20T06:06:59.375Z,19.66
2019-06-20T06:10:04.473Z,19.69
2019-06-20T06:13:08.806Z,19.64
2019-06-20T06:16:25.652Z,20.14
2019-06-20T06:19:18.603Z,19.91
2019-06-20T06:22:22.379Z,20.19
2019-06-20T06:25:26.668Z,20.12
2019-06-20T06:28:30.358Z,20.16
2019-06-20T06:31:34.058Z,20.50
2019-06-20T06:34:38.062Z,20.55
2019-06-20T06:37:41.792Z,20.57
2019-06-20T06:40:45.593Z,20.69
2019-06-20T06:43:49.379Z,20.40
2019-06-20T06:46:57.516Z,20.42
2019-06-20T06:49:58.742Z,20.46
2019-06-20T06:53:02.446Z,20.18
2019-06-20T06:56:06.241Z,20.17
2019-06-20T06:59:09.969Z,19.93
2019-06-20T07:02:14.352Z,20.12
2019-06-20T07:05:18.716Z,19.93
2019-06-20T07:08:22.445Z,20.02
2019-06-20T07:11:26.188Z,19.76
2019-06-20T07:14:29.897Z,19.74
2019-06-20T07:17:33.621Z,19.97
2019-06-20T07:20:37.678Z,19.91
2019-06-20T07:23:41.406Z,19.90
2019-06-20T07:26:45.414Z,19.82
2019-06-20T07:29:49.170Z,19.92
2019-06-20T07:32:52.964Z,19.95
2019-06-20T07:35:56.792Z,19.63
2019-06-20T07:39:01.146Z,19.80
2019-06-20T07:42:04.921Z,19.78
2019-06-20T07:45:09.808Z,19.84
2019-06-20T07:48:13.499Z,19.77
2019-06-20T07:51:17.208Z,19.91
2019-06-20T07:54:20.957Z,20.16
2019-06-20T07:57:25.160Z,20.12
2019-06-20T08:00:29.127Z,20.07
2019-06-20T08:03:32.827Z,20.22
2019-06-20T08:06:36.545Z,20.24
2019-06-20T08:09:44.864Z,20.19
2019-06-20T08:12:45.930Z,20.34
2019-06-20T08:15:49.983Z,20.33
2019-06-20T08:18:54.330Z,20.65
2019-06-20T08:21:58.367Z,20.93
2019-06-20T08:25:03.231Z,21.19
2019-06-20T08:28:07.206Z,21.58
2019-06-20T08:31:11.331Z,21.62
2019-06-20T08:34:15.385Z,21.01
2019-06-20T08:37:19.101Z,20.79
2019-06-20T08:40:25.708Z,21.09
2019-06-20T08:43:29.435Z,21.20
2019-06-20T08:46:33.139Z,21.24
2019-06-20T08:49:37.124Z,21.35
2019-06-20T08:52:41.132Z,21.17
2019-06-20T08:55:45.084Z,21.17
2019-06-20T08:58:48.786Z,21.10
2019-06-20T09:01:55.992Z,21.71
2019-06-20T09:04:58.273Z,21.34
2019-06-20T09:11:06.521Z,21.52
2019-06-20T09:14:10.522Z,21.53
2019-06-20T09:17:14.200Z,21.26
2019-06-20T09:20:19.678Z,21.53
2019-06-20T09:23:23.405Z,21.46
2019-06-20T09:26:27.124Z,21.19
2019-06-20T09:29:41.395Z,21.44
2019-06-20T09:32:37.055Z,21.64
2019-06-20T09:35:40.761Z,21.50
2019-06-20T09:38:44.731Z,21.64
2019-06-20T09:41:48.420Z,21.61
2019-06-20T09:44:52.637Z,21.76
2019-06-20T09:47:56.403Z,21.62
2019-06-20T09:51:00.353Z,21.63
2019-06-20T09:54:04.123Z,21.60
2019-06-20T09:57:08.068Z,21.58
2019-06-20T10:03:15.442Z,21.79
2019-06-20T10:06:19.143Z,22.01
2019-06-20T10:09:22.851Z,21.78
2019-06-20T10:12:26.961Z,21.63
2019-06-20T10:15:33.300Z,21.38
2019-06-20T10:18:37.064Z,21.10
2019-06-20T10:21:40.872Z,21.32
2019-06-20T10:24:45.788Z,21.19
2019-06-20T10:27:51.420Z,21.09
2019-06-20T10:30:55.502Z,21.01
2019-06-20T10:33:59.213Z,21.21
2019-06-20T10:37:03.281Z,21.32
2019-06-20T10:40:08.734Z,21.82
2019-06-20T10:43:12.430Z,22.79
2019-06-20T10:46:16.137Z,23.45
2019-06-20T10:49:19.847Z,24.54
2019-06-20T10:52:23.546Z,24.93
2019-06-20T10:55:27.521Z,25.31
2019-06-20T10:58:31.546Z,24.46
2019-06-20T11:01:35.611Z,23.82
2019-06-20T11:04:40.696Z,22.88
2019-06-20T11:07:45.598Z,22.54
2019-06-20T11:10:49.442Z,22.55
2019-06-20T11:13:53.689Z,22.57
2019-06-20T11:16:58.759Z,22.81
2019-06-20T11:20:03.095Z,23.22
2019-06-20T11:23:06.922Z,23.19
2019-06-20T11:26:10.676Z,22.46
2019-06-20T11:29:14.416Z,22.18
2019-06-20T11:32:18.373Z,22.12
2019-06-20T11:35:22.341Z,22.47
2019-06-20T11:38:26.376Z,23.94
2019-06-20T11:41:30.194Z,25.10
2019-06-20T11:44:35.321Z,24.35
2019-06-20T11:47:40.412Z,24.19
2019-06-20T11:50:44.900Z,23.94
2019-06-20T11:53:48.856Z,23.59
2019-06-20T11:56:52.569Z,24.28
2019-06-20T11:59:56.648Z,23.79
2019-06-20T12:03:00.400Z,23.28
2019-06-20T12:06:04.387Z,22.95
2019-06-20T12:09:08.402Z,23.01
2019-06-20T12:12:12.749Z,22.99
2019-06-20T12:15:17.417Z,22.68
2019-06-20T12:18:21.558Z,22.83
2019-06-20T12:21:25.758Z,22.95
2019-06-20T12:24:29.777Z,23.23
2019-06-20T12:27:34.296Z,23.07
2019-06-20T12:30:38.408Z,23.71
2019-06-20T12:33:45.046Z,23.85
2019-06-20T12:36:48.840Z,23.24
2019-06-20T12:39:52.561Z,23.15
2019-06-20T12:42:56.237Z,23.38
2019-06-20T12:46:00.308Z,23.61
2019-06-20T12:49:04.442Z,23.86
2019-06-20T12:52:08.471Z,24.49
2019-06-20T12:55:12.993Z,24.77
2019-06-20T12:58:16.750Z,24.78
2019-06-20T13:01:34.854Z,24.62
2019-06-20T13:04:25.987Z,24.29
2019-06-20T13:07:29.696Z,24.07
2019-06-20T13:10:33.698Z,23.76
2019-06-20T13:13:38.827Z,24.90
2019-06-20T13:16:42.976Z,24.65
2019-06-20T13:19:46.672Z,24.64
2019-06-20T13:22:50.390Z,24.31
2019-06-20T13:25:54.584Z,24.37
2019-06-20T13:29:04.019Z,24.66
2019-06-20T13:32:04.653Z,25.58
2019-06-20T13:35:09.200Z,25.94
2019-06-20T13:38:13.275Z,26.39
2019-06-20T13:41:17.043Z,25.84
2019-06-20T13:44:21.808Z,26.20
2019-06-20T13:47:25.640Z,26.49
2019-06-20T13:50:29.391Z,26.32
2019-06-20T13:53:33.101Z,26.65
2019-06-20T13:56:36.807Z,26.75
2019-06-20T13:59:41.659Z,26.87
2019-06-20T14:02:47.039Z,26.86
2019-06-20T14:05:51.673Z,26.62
2019-06-20T14:08:55.430Z,26.96
2019-06-20T14:11:59.109Z,26.89
2019-06-20T14:15:02.809Z,26.99
2019-06-20T14:18:06.575Z,26.90
2019-06-20T14:21:10.283Z,27.27
2019-06-20T14:24:14.040Z,26.99
2019-06-20T14:27:17.734Z,27.33
2019-06-20T14:30:22.186Z,26.71
2019-06-20T14:33:25.877Z,27.33
2019-06-20T14:36:30.182Z,26.75
2019-06-20T14:39:34.355Z,26.25
2019-06-20T14:42:38.486Z,26.01
2019-06-20T14:45:43.828Z,25.95
2019-06-20T14:48:48.490Z,26.00
2019-06-20T14:51:52.487Z,26.19
2019-06-20T14:54:56.596Z,25.75
2019-06-20T14:58:00.406Z,25.66
2019-06-20T15:01:04.233Z,25.56
2019-06-20T15:04:07.934Z,25.24
2019-06-20T15:07:11.698Z,24.88
2019-06-20T15:10:16.076Z,25.19
2019-06-20T15:13:19.805Z,25.28
2019-06-20T15:16:23.585Z,25.19
2019-06-20T15:19:27.285Z,25.12
2019-06-20T15:22:32.103Z,25.39
2019-06-20T15:25:36.253Z,25.17
2019-06-20T15:28:39.942Z,24.95
2019-06-20T15:31:43.936Z,24.67
2019-06-20T15:34:49.341Z,24.86
2019-06-20T15:37:53.929Z,25.12
2019-06-20T15:40:58.998Z,24.86
2019-06-20T15:44:02.998Z,24.66
2019-06-20T15:47:07.018Z,24.73
2019-06-20T15:50:10.953Z,24.49
2019-06-20T15:53:14.824Z,24.14
2019-06-20T15:56:18.553Z,24.23
2019-06-20T15:59:22.625Z,24.10
2019-06-20T16:02:26.373Z,23.82
2019-06-20T16:05:30.112Z,23.70
2019-06-20T16:08:33.850Z,23.56
2019-06-20T16:11:37.557Z,23.34
2019-06-20T16:14:41.295Z,22.89
2019-06-20T16:17:44.999Z,22.79
2019-06-20T16:20:48.979Z,23.09
2019-06-20T16:23:52.695Z,23.05
2019-06-20T16:26:56.429Z,22.84
2019-06-20T16:30:00.126Z,22.96
2019-06-20T16:33:04.039Z,22.87
2019-06-20T16:36:07.756Z,22.75
2019-06-20T16:39:11.449Z,22.84
2019-06-20T16:42:15.183Z,22.57
2019-06-20T16:45:19.155Z,22.57
2019-06-20T16:48:22.877Z,22.42
2019-06-20T16:51:26.579Z,22.65
2019-06-20T16:54:30.675Z,22.66
2019-06-20T16:57:34.396Z,22.38
2019-06-20T17:00:38.548Z,22.69
2019-06-20T17:03:42.317Z,22.20
2019-06-20T17:06:46.333Z,22.43
2019-06-20T17:09:50.027Z,22.49
2019-06-20T17:12:54.005Z,22.58
2019-06-20T17:15:57.946Z,22.71
2019-06-20T17:19:01.642Z,22.62
2019-06-20T17:22:06.084Z,22.45
2019-06-20T17:25:10.232Z,22.30
2019-06-20T17:28:13.933Z,22.14
2019-06-20T17:31:17.872Z,21.96
2019-06-20T17:34:21.568Z,21.99
2019-06-20T17:37:25.267Z,21.97
2019-06-20T17:40:29.204Z,21.89
2019-06-20T17:43:32.898Z,21.88
2019-06-20T17:46:36.959Z,21.79
2019-06-20T17:49:40.885Z,21.78
2019-06-20T17:52:44.696Z,21.59
2019-06-20T17:55:48.704Z,21.33
2019-06-20T17:58:52.410Z,21.31
2019-06-20T18:01:56.117Z,21.35
2019-06-20T18:05:00.105Z,21.20
2019-06-20T18:08:14.822Z,21.00
2019-06-20T18:11:09.900Z,20.99
2019-06-20T18:14:14.299Z,20.88
2019-06-20T18:17:18.360Z,20.80
2019-06-20T18:20:24.510Z,20.74
2019-06-20T18:23:28.511Z,20.67
2019-06-20T18:26:32.211Z,20.69
2019-06-20T18:29:36.024Z,20.78
2019-06-20T18:32:40.048Z,20.86
2019-06-20T18:35:43.878Z,20.92
2019-06-20T18:38:47.871Z,21.08
2019-06-20T18:41:51.590Z,20.98
2019-06-20T18:44:55.291Z,20.95
2019-06-20T18:47:59.018Z,20.81
2019-06-20T18:51:02.710Z,20.66
2019-06-20T18:54:06.412Z,20.56
2019-06-20T18:57:10.117Z,20.56
2019-06-20T19:00:14.388Z,20.45
2019-06-20T19:03:21.331Z,20.37
2019-06-20T19:06:35.508Z,20.22
2019-06-20T19:09:29.732Z,20.20
2019-06-20T19:12:33.732Z,20.22
2019-06-20T19:15:37.407Z,20.08
2019-06-20T19:18:41.273Z,20.01
2019-06-20T19:21:44.978Z,19.98
2019-06-20T19:24:48.669Z,19.95
2019-06-20T19:27:52.618Z,19.87
2019-06-20T19:30:56.388Z,19.87
2019-06-20T19:34:00.095Z,19.86
2019-06-20T19:37:03.799Z,19.77
2019-06-20T19:40:08.288Z,19.75
2019-06-20T19:43:12.084Z,19.82
2019-06-20T19:46:15.843Z,19.76
2019-06-20T19:49:19.556Z,19.62
2019-06-20T19:52:23.566Z,19.61
2019-06-20T19:55:27.625Z,19.54
2019-06-20T19:58:31.494Z,19.55
2019-06-20T20:01:35.626Z,19.53
2019-06-20T20:04:39.860Z,19.64
2019-06-20T20:07:44.176Z,19.60
2019-06-20T20:10:48.641Z,19.55
2019-06-20T20:13:52.334Z,19.54
2019-06-20T20:16:56.066Z,19.62
2019-06-20T20:19:59.775Z,19.53
2019-06-20T20:23:03.539Z,19.52
2019-06-20T20:26:08.805Z,19.55
2019-06-20T20:29:12.671Z,19.55
2019-06-20T20:32:16.890Z,19.50
2019-06-20T20:35:34.493Z,19.57
2019-06-20T20:38:26.490Z,19.61
2019-06-20T20:41:30.567Z,19.76
2019-06-20T20:44:34.278Z,19.66
2019-06-20T20:47:38.065Z,19.64
2019-06-20T20:50:42.392Z,19.73
2019-06-20T20:53:46.174Z,19.67
2019-06-20T20:56:50.143Z,19.69
2019-06-20T20:59:53.873Z,19.69
2019-06-20T21:02:57.669Z,19.77
2019-06-20T21:06:01.659Z,19.75
2019-06-20T21:09:07.756Z,19.96
2019-06-20T21:12:11.727Z,19.87
2019-06-20T21:15:16.055Z,19.89
2019-06-20T21:18:19.987Z,19.85
2019-06-20T21:21:24.273Z,19.68
2019-06-20T21:24:28.007Z,19.88
2019-06-20T21:27:32.226Z,19.48
2019-06-20T21:30:35.936Z,19.52
2019-06-20T21:33:39.630Z,19.35
2019-06-20T21:36:43.604Z,19.39
2019-06-20T21:39:47.371Z,19.39
2019-06-20T21:42:51.093Z,19.36
2019-06-20T21:45:54.795Z,19.37
2019-06-20T21:48:58.491Z,19.24
2019-06-20T21:52:02.190Z,19.17
2019-06-20T21:55:06.270Z,19.28
2019-06-20T21:58:10.039Z,19.09
2019-06-20T22:01:14.615Z,19.01
2019-06-20T22:04:18.324Z,19.06
2019-06-20T22:07:22.046Z,19.02
2019-06-20T22:10:25.818Z,18.94
2019-06-20T22:13:29.526Z,18.92
2019-06-20T22:16:33.243Z,18.95
2019-06-20T22:19:36.930Z,18.81
2019-06-20T22:22:41.738Z,18.84
2019-06-20T22:25:45.574Z,18.76
2019-06-20T22:28:49.622Z,18.79
2019-06-20T22:31:53.339Z,18.80
2019-06-20T22:34:57.372Z,18.59
2019-06-20T22:38:01.159Z,18.53
2019-06-20T22:41:04.943Z,18.62
2019-06-20T22:44:08.650Z,18.59
2019-06-20T22:47:12.374Z,18.50
2019-06-20T22:50:16.798Z,18.45
2019-06-20T22:53:20.507Z,18.41
2019-06-20T22:56:24.519Z,18.39
2019-06-20T22:59:28.551Z,18.32
2019-06-20T23:02:32.547Z,18.33
2019-06-20T23:05:36.359Z,18.22
2019-06-20T23:08:40.315Z,18.21
2019-06-20T23:11:44.108Z,18.31
2019-06-20T23:14:48.610Z,18.25
2019-06-20T23:17:52.322Z,18.15
2019-06-20T23:21:04.611Z,18.17
2019-06-20T23:24:02.078Z,17.89
2019-06-20T23:27:06.071Z,18.05
2019-06-20T23:30:11.819Z,18.08
2019-06-20T23:33:15.514Z,18.03
2019-06-20T23:36:19.206Z,18.11
2019-06-20T23:39:22.937Z,18.14
2019-06-20T23:42:26.959Z,18.07
2019-06-20T23:45:30.666Z,18.16
2019-06-20T23:48:34.377Z,18.26
2019-06-20T23:51:42.349Z,18.23
2019-06-20T23:54:46.422Z,17.97
2019-06-20T23:57:50.424Z,17.89
